createdAt,value
2022-09-28T00:01:23.557Z,95527.00
2022-09-28T00:03:54.434Z,95531.00
2022-09-28T00:06:26.812Z,95529.00
2022-09-28T00:08:53.841Z,95521.00
2022-09-28T00:11:23.146Z,95521.00
2022-09-28T00:13:56.644Z,95526.00
2022-09-28T00:16:27.866Z,95531.00
2022-09-28T00:18:55.358Z,95546.00
2022-09-28T00:21:26.841Z,95528.00
2022-09-28T00:24:15.631Z,95526.00
2022-09-28T00:26:54.651Z,95519.00
2022-09-28T00:29:28.315Z,95517.00
2022-09-28T00:32:02.486Z,95523.00
2022-09-28T00:34:33.320Z,95524.00
2022-09-28T00:37:01.663Z,95529.00
2022-09-28T00:39:31.546Z,95523.00
2022-09-28T00:41:59.698Z,95509.00
2022-09-28T00:44:26.397Z,95492.00
2022-09-28T00:47:14.010Z,95492.00
2022-09-28T00:50:01.864Z,95484.00
2022-09-28T00:52:55.045Z,95489.00
2022-09-28T00:55:36.732Z,95485.00
2022-09-28T00:58:07.473Z,95476.00
2022-09-28T01:00:34.275Z,95484.00
2022-09-28T01:03:01.261Z,95494.00
2022-09-28T01:05:28.072Z,95485.00
2022-09-28T01:07:57.575Z,95470.00
2022-09-28T01:10:25.131Z,95469.00
2022-09-28T01:12:51.917Z,95471.00
2022-09-28T01:15:21.756Z,95467.00
2022-09-28T01:18:16.202Z,95469.00
2022-09-28T01:20:57.144Z,95464.00
2022-09-28T01:24:10.835Z,95459.00
2022-09-28T01:27:02.969Z,95447.00
2022-09-28T01:29:44.255Z,95444.00
2022-09-28T01:32:45.677Z,95447.00
2022-09-28T01:35:25.676Z,95444.00
2022-09-28T01:38:19.704Z,95433.00
2022-09-28T01:40:47.882Z,95432.00
2022-09-28T01:43:25.475Z,95432.00
2022-09-28T01:45:58.777Z,95422.00
2022-09-28T01:48:40.175Z,95420.00
2022-09-28T01:51:17.228Z,95414.00
2022-09-28T01:53:50.311Z,95416.00
2022-09-28T01:56:22.375Z,95417.00
2022-09-28T01:59:06.458Z,95406.00
2022-09-28T02:02:13.799Z,95397.00
2022-09-28T02:05:10.377Z,95402.00
2022-09-28T02:08:11.198Z,95386.00
2022-09-28T02:11:08.046Z,95386.00
2022-09-28T02:14:01.532Z,95385.00
2022-09-28T02:16:41.529Z,95388.00
2022-09-28T02:19:25.817Z,95389.00
2022-09-28T02:22:30.942Z,95385.00
2022-09-28T02:25:09.814Z,95387.00
2022-09-28T02:27:40.955Z,95376.00
2022-09-28T02:30:09.042Z,95366.00
2022-09-28T02:32:40.551Z,95368.00
2022-09-28T02:35:14.568Z,95362.00
2022-09-28T02:37:42.094Z,95354.00
2022-09-28T02:40:31.430Z,95345.00
2022-09-28T02:43:26.123Z,95348.00
2022-09-28T02:46:20.470Z,95350.00
2022-09-28T02:49:20.858Z,95349.00
2022-09-28T02:52:04.961Z,95343.00
2022-09-28T02:54:53.419Z,95332.00
2022-09-28T02:57:38.066Z,95332.00
2022-09-28T03:00:12.024Z,95326.00
2022-09-28T03:03:12.629Z,95330.00
2022-09-28T03:06:20.406Z,95331.00
2022-09-28T03:09:27.104Z,95317.00
2022-09-28T03:11:58.474Z,95320.00
2022-09-28T03:14:25.503Z,95313.00
2022-09-28T03:16:52.443Z,95322.00
2022-09-28T03:19:24.713Z,95316.00
2022-09-28T03:21:51.467Z,95304.00
2022-09-28T03:24:18.298Z,95301.00
2022-09-28T03:26:45.040Z,95298.00
2022-09-28T03:29:11.856Z,95295.00
2022-09-28T03:31:38.737Z,95284.00
2022-09-28T03:34:05.657Z,95285.00
2022-09-28T03:36:32.470Z,95281.00
2022-09-28T03:38:59.572Z,95280.00
2022-09-28T03:41:27.837Z,95266.00
2022-09-28T03:43:54.876Z,95268.00
2022-09-28T03:46:21.841Z,95265.00
2022-09-28T03:48:48.745Z,95271.00
2022-09-28T03:51:15.569Z,95268.00
2022-09-28T03:53:42.308Z,95261.00
2022-09-28T03:56:14.773Z,95253.00
2022-09-28T03:58:42.084Z,95245.00
2022-09-28T04:01:16.527Z,95244.00
2022-09-28T04:03:45.423Z,95238.00
2022-09-28T04:06:13.428Z,95236.00
2022-09-28T04:08:40.401Z,95230.00
2022-09-28T04:11:07.188Z,95229.00
2022-09-28T04:13:33.987Z,95223.00
2022-09-28T04:16:01.828Z,95216.00
2022-09-28T04:18:29.458Z,95216.00
2022-09-28T04:21:03.470Z,95207.00
2022-09-28T04:23:30.899Z,95191.00
2022-09-28T04:25:57.725Z,95202.00
2022-09-28T04:28:43.730Z,95197.00
2022-09-28T04:31:19.292Z,95188.00
2022-09-28T04:33:46.567Z,95174.00
2022-09-28T04:36:14.388Z,95170.00
2022-09-28T04:38:52.679Z,95175.00
2022-09-28T04:41:22.412Z,95165.00
2022-09-28T04:43:50.005Z,95163.00
2022-09-28T04:46:17.347Z,95151.00
2022-09-28T04:48:44.288Z,95152.00
2022-09-28T04:51:48.856Z,95146.00
2022-09-28T04:54:53.088Z,95152.00
2022-09-28T04:57:19.822Z,95146.00
2022-09-28T04:59:46.591Z,95144.00
2022-09-28T05:02:14.906Z,95136.00
2022-09-28T05:04:41.929Z,95142.00
2022-09-28T05:07:09.238Z,95140.00
2022-09-28T05:09:38.389Z,95134.00
2022-09-28T05:12:05.490Z,95132.00
2022-09-28T05:14:32.210Z,95131.00
2022-09-28T05:16:59.017Z,95119.00
2022-09-28T05:19:26.019Z,95102.00
2022-09-28T05:21:52.876Z,95118.00
2022-09-28T05:24:19.618Z,95113.00
2022-09-28T05:26:46.348Z,95113.00
2022-09-28T05:29:13.351Z,95105.00
2022-09-28T05:31:40.284Z,95107.00
2022-09-28T05:34:07.196Z,95107.00
2022-09-28T05:36:34.484Z,95099.00
2022-09-28T05:39:03.591Z,95095.00
2022-09-28T05:41:30.333Z,95100.00
2022-09-28T05:43:58.087Z,95095.00
2022-09-28T05:46:25.007Z,95083.00
2022-09-28T05:48:54.457Z,95092.00
2022-09-28T05:51:22.169Z,95089.00
2022-09-28T05:53:48.904Z,95079.00
2022-09-28T05:56:15.660Z,95083.00
2022-09-28T05:58:42.405Z,95074.00
2022-09-28T06:01:09.338Z,95069.00
2022-09-28T06:03:36.100Z,95071.00
2022-09-28T06:06:02.964Z,95069.00
2022-09-28T06:08:32.790Z,95071.00
2022-09-28T06:11:01.295Z,95064.00
2022-09-28T06:13:29.189Z,95051.00
2022-09-28T06:15:56.459Z,95057.00
2022-09-28T06:18:23.323Z,95061.00
2022-09-28T06:20:50.105Z,95057.00
2022-09-28T06:23:16.911Z,95053.00
2022-09-28T06:25:43.905Z,95051.00
2022-09-28T06:28:13.724Z,95059.00
2022-09-28T06:30:41.887Z,95045.00
2022-09-28T06:33:12.800Z,95053.00
2022-09-28T06:35:40.577Z,95045.00
2022-09-28T06:38:07.577Z,95051.00
2022-09-28T06:40:35.678Z,95047.00
2022-09-28T06:43:12.120Z,95056.00
2022-09-28T06:45:39.173Z,95047.00
2022-09-28T06:48:07.167Z,95040.00
2022-09-28T06:50:40.476Z,95047.00
2022-09-28T06:53:11.170Z,95044.00
2022-09-28T06:55:48.950Z,95047.00
2022-09-28T06:58:19.892Z,95045.00
2022-09-28T07:00:48.393Z,95040.00
2022-09-28T07:03:19.059Z,95047.00
2022-09-28T07:05:52.551Z,95050.00
2022-09-28T07:08:21.593Z,95042.00
2022-09-28T07:10:56.063Z,95043.00
2022-09-28T07:16:13.130Z,95050.00
2022-09-28T07:18:40.421Z,95043.00
2022-09-28T07:21:08.173Z,95041.00
2022-09-28T07:23:47.890Z,95049.00
2022-09-28T07:26:20.459Z,95054.00
2022-09-28T07:28:48.582Z,95041.00
2022-09-28T07:31:15.413Z,95053.00
2022-09-28T07:33:42.195Z,95053.00
2022-09-28T07:36:08.959Z,95069.00
2022-09-28T07:38:35.962Z,95061.00
2022-09-28T07:41:11.365Z,95056.00
2022-09-28T07:43:41.762Z,95068.00
2022-09-28T07:46:12.578Z,95072.00
2022-09-28T07:48:41.730Z,95071.00
2022-09-28T07:51:08.864Z,95072.00
2022-09-28T07:53:38.176Z,95078.00
2022-09-28T07:56:07.279Z,95059.00
2022-09-28T07:58:36.579Z,95071.00
2022-09-28T08:01:10.647Z,95075.00
2022-09-28T08:03:38.754Z,95084.00
2022-09-28T08:06:11.005Z,95095.00
2022-09-28T08:08:38.100Z,95082.00
2022-09-28T08:11:07.225Z,95090.00
2022-09-28T08:13:33.999Z,95084.00
2022-09-28T08:16:03.285Z,95095.00
2022-09-28T08:18:31.386Z,95090.00
2022-09-28T08:21:16.533Z,95103.00
2022-09-28T08:23:43.316Z,95097.00
2022-09-28T08:26:14.606Z,95107.00
2022-09-28T08:28:43.428Z,95106.00
2022-09-28T08:31:10.385Z,95103.00
2022-09-28T08:33:37.405Z,95114.00
2022-09-28T08:36:05.968Z,95113.00
2022-09-28T08:38:33.101Z,95118.00
2022-09-28T08:41:39.062Z,95125.00
2022-09-28T08:44:26.365Z,95119.00
2022-09-28T08:47:04.398Z,95122.00
2022-09-28T08:49:45.179Z,95126.00
2022-09-28T08:52:23.268Z,95120.00
2022-09-28T08:55:07.521Z,95121.00
2022-09-28T08:58:05.422Z,95124.00
2022-09-28T09:00:54.080Z,95127.00
2022-09-28T09:03:39.352Z,95142.00
2022-09-28T09:06:40.211Z,95150.00
2022-09-28T09:09:43.746Z,95150.00
2022-09-28T09:13:01.705Z,95157.00
2022-09-28T09:15:54.037Z,95161.00
2022-09-28T09:18:32.752Z,95161.00
2022-09-28T09:21:09.956Z,95172.00
2022-09-28T09:23:45.993Z,95166.00
2022-09-28T09:26:25.583Z,95178.00
2022-09-28T09:29:23.754Z,95171.00
2022-09-28T09:32:16.134Z,95166.00
2022-09-28T09:34:54.873Z,95174.00
2022-09-28T09:37:55.265Z,95182.00
2022-09-28T09:41:04.792Z,95173.00
2022-09-28T09:43:59.830Z,95182.00
2022-09-28T09:46:39.128Z,95175.00
2022-09-28T09:49:21.686Z,95188.00
2022-09-28T09:52:05.402Z,95172.00
2022-09-28T09:55:11.987Z,95186.00
2022-09-28T09:57:51.180Z,95189.00
2022-09-28T10:00:18.829Z,95182.00
2022-09-28T10:02:48.345Z,95195.00
2022-09-28T10:05:21.775Z,95187.00
2022-09-28T10:08:03.718Z,95192.00
2022-09-28T10:10:43.061Z,95205.00
2022-09-28T10:13:10.155Z,95208.00
2022-09-28T10:15:37.317Z,95205.00
2022-09-28T10:18:10.078Z,95198.00
2022-09-28T10:20:43.417Z,95196.00
2022-09-28T10:23:25.487Z,95194.00
2022-09-28T10:25:57.939Z,95189.00
2022-09-28T10:29:00.759Z,95201.00
2022-09-28T10:31:37.399Z,95191.00
2022-09-28T10:34:06.839Z,95196.00
2022-09-28T10:36:48.738Z,95201.00
2022-09-28T10:39:52.235Z,95201.00
2022-09-28T10:42:25.836Z,95198.00
2022-09-28T10:45:04.703Z,95195.00
2022-09-28T10:47:32.691Z,95198.00
2022-09-28T10:50:00.765Z,95201.00
2022-09-28T10:52:40.810Z,95201.00
2022-09-28T10:55:26.199Z,95196.00
2022-09-28T10:57:53.179Z,95204.00
2022-09-28T11:00:34.906Z,95203.00
2022-09-28T11:03:02.663Z,95190.00
2022-09-28T11:05:30.047Z,95202.00
2022-09-28T11:08:00.035Z,95192.00
2022-09-28T11:10:30.766Z,95191.00
2022-09-28T11:12:58.178Z,95210.00
2022-09-28T11:15:33.174Z,95216.00
2022-09-28T11:18:25.487Z,95210.00
2022-09-28T11:20:52.313Z,95209.00
2022-09-28T11:23:27.002Z,95218.00
2022-09-28T11:26:03.043Z,95211.00
2022-09-28T11:28:37.437Z,95215.00
2022-09-28T11:31:07.839Z,95220.00
2022-09-28T11:33:45.802Z,95221.00
2022-09-28T11:36:16.965Z,95227.00
2022-09-28T11:38:53.854Z,95225.00
2022-09-28T11:41:58.405Z,95221.00
2022-09-28T11:44:46.448Z,95213.00
2022-09-28T11:47:41.679Z,95202.00
2022-09-28T11:50:26.360Z,95209.00
2022-09-28T11:52:59.242Z,95217.00
2022-09-28T11:55:50.468Z,95229.00
2022-09-28T11:58:39.636Z,95237.00
2022-09-28T12:01:35.454Z,95228.00
2022-09-28T12:04:28.543Z,95227.00
2022-09-28T12:07:25.817Z,95226.00
2022-09-28T12:10:16.661Z,95246.00
2022-09-28T12:13:13.275Z,95246.00
2022-09-28T12:16:20.084Z,95247.00
2022-09-28T12:18:58.098Z,95243.00
2022-09-28T12:21:25.197Z,95245.00
2022-09-28T12:24:02.887Z,95242.00
2022-09-28T12:27:41.293Z,95238.00
2022-09-28T12:30:25.674Z,95236.00
2022-09-28T12:33:16.214Z,95237.00
2022-09-28T12:36:30.433Z,95236.00
2022-09-28T12:39:46.986Z,95244.00
2022-09-28T12:43:01.117Z,95249.00
2022-09-28T12:46:14.192Z,95243.00
2022-09-28T12:49:56.235Z,95243.00
2022-09-28T12:52:08.970Z,95248.00
2022-09-28T12:54:50.617Z,95241.00
2022-09-28T12:57:41.264Z,95242.00
2022-09-28T13:00:16.362Z,95259.00
2022-09-28T13:03:21.353Z,95258.00
2022-09-28T13:06:13.139Z,95260.00
2022-09-28T13:09:26.727Z,95266.00
2022-09-28T13:12:14.331Z,95265.00
2022-09-28T13:15:15.375Z,95273.00
2022-09-28T13:17:56.601Z,95272.00
2022-09-28T13:20:32.267Z,95280.00
2022-09-28T13:23:16.828Z,95281.00
2022-09-28T13:25:56.827Z,95284.00
2022-09-28T13:28:27.245Z,95286.00
2022-09-28T13:33:41.494Z,95293.00
2022-09-28T13:36:30.265Z,95301.00
2022-09-28T13:38:59.552Z,95303.00
2022-09-28T13:41:36.552Z,95298.00
2022-09-28T13:44:12.478Z,95308.00
2022-09-28T13:47:00.192Z,95311.00
2022-09-28T13:49:41.962Z,95316.00
2022-09-28T13:52:40.378Z,95309.00
2022-09-28T13:55:50.286Z,95303.00
2022-09-28T13:58:30.364Z,95321.00
2022-09-28T14:01:17.258Z,95313.00
2022-09-28T14:04:14.841Z,95319.00
2022-09-28T14:06:49.468Z,95326.00
2022-09-28T14:09:49.325Z,95322.00
2022-09-28T14:12:47.517Z,95312.00
2022-09-28T14:15:37.104Z,95314.00
2022-09-28T14:18:31.769Z,95315.00
2022-09-28T14:21:07.788Z,95325.00
2022-09-28T14:24:08.570Z,95320.00
2022-09-28T14:27:00.247Z,95317.00
2022-09-28T14:29:34.193Z,95306.00
2022-09-28T14:32:20.601Z,95309.00
2022-09-28T14:34:56.890Z,95310.00
2022-09-28T14:37:56.426Z,95308.00
2022-09-28T14:40:55.378Z,95302.00
2022-09-28T14:43:34.945Z,95314.00
2022-09-28T14:46:23.115Z,95310.00
2022-09-28T14:49:23.270Z,95322.00
2022-09-28T14:51:58.597Z,95318.00
2022-09-28T14:54:29.619Z,95321.00
2022-09-28T14:57:12.206Z,95318.00
2022-09-28T14:59:46.109Z,95309.00
2022-09-28T15:02:38.409Z,95318.00
2022-09-28T15:05:20.347Z,95315.00
2022-09-28T15:07:51.565Z,95306.00
2022-09-28T15:10:31.926Z,95300.00
2022-09-28T15:13:06.234Z,95310.00
2022-09-28T15:15:40.110Z,95320.00
2022-09-28T15:18:18.841Z,95319.00
2022-09-28T15:20:49.570Z,95315.00
2022-09-28T15:23:36.782Z,95315.00
2022-09-28T15:26:09.754Z,95310.00
2022-09-28T15:28:44.290Z,95318.00
2022-09-28T15:31:23.831Z,95320.00
2022-09-28T15:34:09.244Z,95321.00
2022-09-28T15:36:40.883Z,95328.00
2022-09-28T15:39:37.849Z,95330.00
2022-09-28T15:42:06.171Z,95337.00
2022-09-28T15:44:37.100Z,95338.00
2022-09-28T15:47:16.683Z,95345.00
2022-09-28T15:49:59.575Z,95342.00
2022-09-28T15:52:47.024Z,95338.00
2022-09-28T15:55:28.910Z,95337.00
2022-09-28T15:58:28.950Z,95343.00
2022-09-28T16:01:31.902Z,95352.00
2022-09-28T16:03:59.629Z,95359.00
2022-09-28T16:06:26.353Z,95358.00
2022-09-28T16:08:53.690Z,95368.00
2022-09-28T16:11:40.589Z,95367.00
2022-09-28T16:14:19.651Z,95364.00
2022-09-28T16:16:52.106Z,95365.00
2022-09-28T16:19:48.947Z,95362.00
2022-09-28T16:22:24.491Z,95368.00
2022-09-28T16:24:57.840Z,95365.00
2022-09-28T16:27:40.451Z,95374.00
2022-09-28T16:30:27.139Z,95386.00
2022-09-28T16:32:59.284Z,95375.00
2022-09-28T16:35:32.439Z,95387.00
2022-09-28T16:38:14.492Z,95385.00
2022-09-28T16:40:46.162Z,95381.00
2022-09-28T16:43:26.599Z,95387.00
2022-09-28T16:45:59.809Z,95389.00
2022-09-28T16:48:32.145Z,95388.00
2022-09-28T16:50:59.173Z,95384.00
2022-09-28T16:53:45.267Z,95388.00
2022-09-28T16:56:12.838Z,95383.00
2022-09-28T16:58:39.721Z,95394.00
2022-09-28T17:01:09.705Z,95393.00
2022-09-28T17:03:36.574Z,95405.00
2022-09-28T17:06:06.162Z,95396.00
2022-09-28T17:08:33.774Z,95394.00
2022-09-28T17:11:24.269Z,95397.00
2022-09-28T17:13:51.900Z,95402.00
2022-09-28T17:16:42.697Z,95402.00
2022-09-28T17:19:22.650Z,95403.00
2022-09-28T17:21:51.153Z,95405.00
2022-09-28T17:24:19.190Z,95396.00
2022-09-28T17:26:49.470Z,95408.00
2022-09-28T17:29:16.798Z,95409.00
2022-09-28T17:31:45.131Z,95414.00
2022-09-28T17:34:15.995Z,95420.00
2022-09-28T17:36:44.291Z,95413.00
2022-09-28T17:39:18.435Z,95429.00
2022-09-28T17:41:45.874Z,95434.00
2022-09-28T17:44:15.759Z,95436.00
2022-09-28T17:46:49.054Z,95437.00
2022-09-28T17:49:16.564Z,95440.00
2022-09-28T17:51:43.398Z,95445.00
2022-09-28T17:54:10.287Z,95444.00
2022-09-28T17:56:37.545Z,95438.00
2022-09-28T17:59:07.879Z,95443.00
2022-09-28T18:01:38.736Z,95440.00
2022-09-28T18:04:08.707Z,95443.00
2022-09-28T18:06:37.162Z,95444.00
2022-09-28T18:09:05.057Z,95443.00
2022-09-28T18:11:33.042Z,95438.00
2022-09-28T18:13:59.883Z,95438.00
2022-09-28T18:16:28.580Z,95437.00
2022-09-28T18:18:55.495Z,95439.00
2022-09-28T18:21:22.273Z,95441.00
2022-09-28T18:23:49.082Z,95444.00
2022-09-28T18:26:19.408Z,95450.00
2022-09-28T18:28:46.621Z,95451.00
2022-09-28T18:31:15.896Z,95458.00
2022-09-28T18:36:35.807Z,95458.00
2022-09-28T18:39:03.574Z,95452.00
2022-09-28T18:41:30.321Z,95458.00
2022-09-28T18:44:00.705Z,95461.00
2022-09-28T18:46:29.109Z,95463.00
2022-09-28T18:48:56.577Z,95465.00
2022-09-28T18:51:24.304Z,95470.00
2022-09-28T18:53:51.120Z,95473.00
2022-09-28T18:56:19.142Z,95483.00
2022-09-28T18:58:47.111Z,95472.00
2022-09-28T19:01:36.249Z,95474.00
2022-09-28T19:04:06.596Z,95481.00
2022-09-28T19:06:34.659Z,95472.00
2022-09-28T19:09:01.721Z,95481.00
2022-09-28T19:11:28.721Z,95475.00
2022-09-28T19:13:56.318Z,95488.00
2022-09-28T19:16:28.382Z,95486.00
2022-09-28T19:19:03.004Z,95489.00
2022-09-28T19:21:30.461Z,95490.00
2022-09-28T19:24:01.583Z,95491.00
2022-09-28T19:26:30.017Z,95504.00
2022-09-28T19:28:58.221Z,95488.00
2022-09-28T19:31:26.149Z,95500.00
2022-09-28T19:33:52.911Z,95499.00
2022-09-28T19:36:23.902Z,95500.00
2022-09-28T19:38:52.683Z,95508.00
2022-09-28T19:41:43.686Z,95499.00
2022-09-28T19:44:25.288Z,95506.00
2022-09-28T19:47:04.050Z,95507.00
2022-09-28T19:49:33.231Z,95510.00
2022-09-28T19:52:16.629Z,95503.00
2022-09-28T19:54:51.998Z,95517.00
2022-09-28T19:57:19.564Z,95518.00
2022-09-28T19:59:50.665Z,95513.00
2022-09-28T20:02:19.453Z,95514.00
2022-09-28T20:04:46.265Z,95525.00
2022-09-28T20:07:13.114Z,95531.00
2022-09-28T20:09:39.994Z,95531.00
2022-09-28T20:12:06.757Z,95538.00
2022-09-28T20:14:37.952Z,95533.00
2022-09-28T20:17:07.327Z,95529.00
2022-09-28T20:19:34.845Z,95539.00
2022-09-28T20:22:02.744Z,95534.00
2022-09-28T20:24:30.304Z,95550.00
2022-09-28T20:26:57.765Z,95555.00
2022-09-28T20:29:24.836Z,95556.00
2022-09-28T20:31:51.920Z,95555.00
2022-09-28T20:34:18.929Z,95558.00
2022-09-28T20:36:45.940Z,95563.00
2022-09-28T20:39:13.381Z,95573.00
2022-09-28T20:41:41.099Z,95576.00
2022-09-28T20:44:08.057Z,95571.00
2022-09-28T20:46:35.762Z,95574.00
2022-09-28T20:49:04.161Z,95576.00
2022-09-28T20:51:31.676Z,95574.00
2022-09-28T20:53:59.492Z,95578.00
2022-09-28T20:56:30.512Z,95573.00
2022-09-28T20:58:57.653Z,95580.00
2022-09-28T21:01:27.419Z,95583.00
2022-09-28T21:04:00.551Z,95582.00
2022-09-28T21:06:29.419Z,95577.00
2022-09-28T21:08:56.673Z,95587.00
2022-09-28T21:11:25.819Z,95587.00
2022-09-28T21:14:01.030Z,95587.00
2022-09-28T21:16:31.472Z,95578.00
2022-09-28T21:18:58.817Z,95588.00
2022-09-28T21:21:26.956Z,95589.00
2022-09-28T21:23:58.375Z,95594.00
2022-09-28T21:26:28.553Z,95590.00
2022-09-28T21:29:01.851Z,95587.00
2022-09-28T21:31:47.375Z,95592.00
2022-09-28T21:34:19.957Z,95590.00
2022-09-28T21:36:51.525Z,95595.00
2022-09-28T21:39:18.999Z,95592.00
2022-09-28T21:41:46.030Z,95594.00
2022-09-28T21:44:12.822Z,95595.00
2022-09-28T21:46:39.755Z,95586.00
2022-09-28T21:49:08.165Z,95584.00
2022-09-28T21:51:35.683Z,95589.00
2022-09-28T21:54:02.520Z,95590.00
2022-09-28T21:56:29.308Z,95597.00
2022-09-28T21:58:56.128Z,95590.00
2022-09-28T22:01:25.536Z,95591.00
2022-09-28T22:03:55.410Z,95592.00
2022-09-28T22:06:27.829Z,95590.00
2022-09-28T22:08:54.837Z,95589.00
2022-09-28T22:11:24.825Z,95598.00
2022-09-28T22:13:55.604Z,95605.00
2022-09-28T22:16:26.207Z,95605.00
2022-09-28T22:18:53.369Z,95604.00
2022-09-28T22:21:26.813Z,95605.00
2022-09-28T22:23:53.888Z,95605.00
2022-09-28T22:26:25.905Z,95603.00
2022-09-28T22:28:56.070Z,95602.00
2022-09-28T22:31:31.604Z,95605.00
2022-09-28T22:33:59.012Z,95606.00
2022-09-28T22:36:26.562Z,95608.00
2022-09-28T22:38:55.557Z,95610.00
2022-09-28T22:41:23.351Z,95606.00
2022-09-28T22:43:52.246Z,95610.00
2022-09-28T22:46:28.176Z,95606.00
2022-09-28T22:48:58.970Z,95606.00
2022-09-28T22:51:28.122Z,95608.00
2022-09-28T22:53:56.405Z,95611.00
2022-09-28T22:56:23.474Z,95606.00
2022-09-28T22:58:50.335Z,95600.00
2022-09-28T23:01:29.466Z,95599.00
2022-09-28T23:03:57.309Z,95602.00
2022-09-28T23:06:26.982Z,95613.00
2022-09-28T23:08:53.772Z,95614.00
2022-09-28T23:11:20.664Z,95616.00
2022-09-28T23:13:52.712Z,95617.00
2022-09-28T23:16:20.614Z,95617.00
2022-09-28T23:18:49.064Z,95623.00
2022-09-28T23:21:19.199Z,95608.00
2022-09-28T23:23:54.782Z,95619.00
2022-09-28T23:26:26.057Z,95609.00
2022-09-28T23:28:53.878Z,95614.00
2022-09-28T23:31:24.886Z,95619.00
2022-09-28T23:33:51.889Z,95610.00
2022-09-28T23:36:18.776Z,95608.00
2022-09-28T23:38:45.640Z,95607.00
2022-09-28T23:41:12.467Z,95612.00
2022-09-28T23:43:39.211Z,95602.00
2022-09-28T23:46:06.406Z,95602.00
2022-09-28T23:48:33.892Z,95609.00
2022-09-28T23:51:01.453Z,95613.00
2022-09-28T23:53:28.833Z,95607.00
2022-09-28T23:55:55.656Z,95603.00
2022-09-28T23:58:22.654Z,95617.00
